Terminal Aerodrome Forecast
Issued by NWS Mt. Holly, NJ

Home | Current Version | Previous Version | Text Only | Print | Product List | Glossary On
Versions: 1 2 3 4 5 6 7 8 9 10 11 12 13 14 15 16 17 18 19
000
FTUS41 KPHI 232300
TAFABE
TAF
KABE 232329Z 2400/2424 00000KT P6SM FEW250
     FM241200 08005KT P6SM OVC250
     FM241900 09010G18KT P6SM SCT035 OVC200=

USA.gov is the U.S. government's official web portal to all federal, state and local government web resources and services.